KSAC/SAC METAR and TAF weather

Enter ICAO airport designator
Station Type Date Time Source
KSAC METAR 2019/10/15 21:53 UTC NOAA

KSAC 152153Z 00000KT 10SM CLR 26/03 A3003 RMK AO2 SLP167 T02560028


Station Type Date Time Source
KSAC Decoded METAR 2019/10/15 21:53 UTC NOAA

SACRAMENTO EXECUTIVE AIRPORT , CA, United States (KSAC) 38-30N 121-30W 11M
Oct 15, 2019 - 05:53 PM EDT / 2019.10.15 2153 UTC
Wind: Calm:0
Visibility: 10 mile(s):0
Sky conditions: clear
Temperature: 78.1 F (25.6 C)
Dew Point: 37.0 F (2.8 C)
Relative Humidity: 22%
Pressure (altimeter): 30.03 in. Hg (1016 hPa)
ob: KSAC 152153Z 00000KT 10SM CLR 26/03 A3003 RMK AO2 SLP167 T02560028
cycle: 22

Station Type Date Time Source
KSAC TAF 2019/10/15 18:40 UTC NOAA

TAF KSAC 151738Z 1518/1618 17004KT P6SM SKC

Example: see airport list